Aeroporto :
LOGIN :

Iscrizione | Disclaimer

   EN    FR    IT 

 










Sommario :    VFR   VFR Marginale   IFR   IFR Intensivo   IFR Molto Intensivo
Visibilità : 
Base nubi : 
>= 8 km
>= 3000ft
5 / 8 km
1000 / 3000 ft
1500m / 5 km
500 / 1000 ft
800 / 1500m
200 / 500 ft
< 800m
< 200 ft
Simboli :   Temporali  Nebbia  Neve Forte  Precipitazioni Forti  Vento > 20 kt
SIGMETs :   Varie  Temporali  Ghiacco  Turbolenza  Onda orograficha  Ceneri Vulcaniche






- Altitudine del aeroporto : 870 ft
- Codice IATA : ETZ


LFJL - Metz Nancy Lorraine

ULTIMO METAR :
  • 150530Z AUTO 23018KT 9999 BKN017/// OVC024/// ///TCU 10/09 Q1001 TEMPO 23022G35KT 4000 RA BKN010

METARs OBSOLETI :
  • 150500Z AUTO 24018KT 9999 BKN015/// OVC020/// ///TCU 10/09 Q1001 TEMPO 23022G35KT 4000 RA BKN010
  • 150430Z AUTO 23016KT 9999 -RA BKN010/// OVC014/// ///CB 09/09 Q1000 TEMPO 23022G35KT 4000 RA BKN010
  • 150400Z AUTO 23014KT 4500 -RA BR BKN009/// OVC023/// ///TCU 09/09 Q1000 TEMPO 23022G35KT RA BKN010
  • 150330Z AUTO 23014KT 9999 -DZ BKN013/// BKN019/// OVC034/// ///TCU 09/08 Q1000 TEMPO 23022G35KT 4000 RA BKN010
  • 150300Z AUTO 22008KT 9000 -RA FEW002 BKN020 BKN027 09/09 Q1000 TEMPO 23022G35KT 4000 RA BKN010

TAF TAF LFJL
Valido dal 15 a 00 ore il 16 a 00 ore UTC


142300Z 1500/1524 23015G25KT 9999 SCT030 BKN040
TEMPO 1500/1510 23022G35KT 4000 RA BKN010
BECMG 1510/1512 22008KT
TEMPO 1510/1524 -SHRA



MetMap, La meteo Aeronautica in un colpo d'occhio ! - Copyright ORBIFLY Dicembre 2007 - Disclaimer

ORBIFLY MET'MAP TEAM :

Programmazione e sviluppo : Alexandra Zaïnal
Concezione : Baudouin d'Aumeries
Aiuto per la programmazione : Marc-Olivier Méhu
Supporto tecnico e logistico : Manuel Goepfert
Aiuto per la traduzione : Arnaldo La Scala

Contatto : metmap@orbifly.com




FONTI E CREDITI :

   NOAA